
<gpx xmlns="http://www.topografix.com/GPX/1/1" xmlns:gpxx="http://www.garmin.com/xmlschemas/GpxExtensions/v3" xmlns:xsi="http://www.w3.org/2001/XMLSchema-instance" version="1.1" creator="Adze - https://getadze.com/" xsi:schemaLocation="http://www.topografix.com/GPX/1/1 http://www.topografix.com/GPX/1/1/gpx.xsd http://www.garmin.com/xmlschemas/GpxExtensions/v3 http://www.garmin.com/xmlschemas/GpxExtensionsv3.xsd">
    <metadata>
        <name>Untitled Document</name>
        <link href="http://www.garmin.com"></link>
        <time>2018-02-27T06:22:27.396Z</time>
    </metadata>
    <wpt lon="101.406549" lat="14.216801">
        <ele>34.000000</ele>
        <name>Khao Yai Grand View</name>
        <cmt>23-JUN-12 13:03:32</cmt>
        <desc>23-JUN-12 13:03:32</desc>
        <sym>Lodging</sym>
        <extensions>
            <gpxx:WaypointExtension xmlns:gpxx="http://www.garmin.com/xmlschemas/GpxExtensions/v3">
                <gpxx:DisplayMode>SymbolOnly</gpxx:DisplayMode>
            </gpxx:WaypointExtension>
        </extensions>
    </wpt>
    <wpt lon="101.342653" lat="14.204558">
        <ele>25.000000</ele>
        <name>Water Sunday</name>
        <cmt>24-JUN-12 11:34:36</cmt>
        <desc>24-JUN-12 11:34:36</desc>
        <sym>Drinking Water</sym>
        <extensions>
            <gpxx:WaypointExtension xmlns:gpxx="http://www.garmin.com/xmlschemas/GpxExtensions/v3">
                <gpxx:DisplayMode>SymbolOnly</gpxx:DisplayMode>
            </gpxx:WaypointExtension>
        </extensions>
    </wpt>
    <trk>
        <name>Sunday</name>
        <extensions>
            <gpxx:TrackExtension xmlns:gpxx="http://www.garmin.com/xmlschemas/GpxExtensions/v3">
                <gpxx:DisplayColor>Green</gpxx:DisplayColor>
            </gpxx:TrackExtension>
        </extensions>
        <trkseg>
            <trkpt lon="101.407297" lat="14.217446">
                <ele>44.838623</ele>
                <time>2012-06-24T03:01:17Z</time>
            </trkpt>
            <trkpt lon="101.407311" lat="14.217553">
                <ele>56.374512</ele>
                <time>2012-06-24T03:01:26Z</time>
            </trkpt>
            <trkpt lon="101.407008" lat="14.217520">
                <ele>53.971191</ele>
                <time>2012-06-24T03:01:40Z</time>
            </trkpt>
            <trkpt lon="101.406835" lat="14.217484">
                <ele>47.722534</ele>
                <time>2012-06-24T03:01:52Z</time>
            </trkpt>
            <trkpt lon="101.406811" lat="14.217396">
                <ele>40.993408</ele>
                <time>2012-06-24T03:02:39Z</time>
            </trkpt>
            <trkpt lon="101.406635" lat="14.217406">
                <ele>39.070679</ele>
                <time>2012-06-24T03:03:15Z</time>
            </trkpt>
            <trkpt lon="101.406064" lat="14.217596">
                <ele>36.186768</ele>
                <time>2012-06-24T03:03:29Z</time>
            </trkpt>
            <trkpt lon="101.405908" lat="14.218036">
                <ele>36.667481</ele>
                <time>2012-06-24T03:03:40Z</time>
            </trkpt>
            <trkpt lon="101.405930" lat="14.218222">
                <ele>36.186768</ele>
                <time>2012-06-24T03:03:44Z</time>
            </trkpt>
            <trkpt lon="101.405616" lat="14.218427">
                <ele>32.822266</ele>
                <time>2012-06-24T03:03:55Z</time>
            </trkpt>
            <trkpt lon="101.405586" lat="14.222041">
                <ele>31.380127</ele>
                <time>2012-06-24T03:05:13Z</time>
            </trkpt>
            <trkpt lon="101.405097" lat="14.222121">
                <ele>31.380127</ele>
                <time>2012-06-24T03:05:24Z</time>
            </trkpt>
            <trkpt lon="101.404517" lat="14.221973">
                <ele>33.783447</ele>
                <time>2012-06-24T03:06:02Z</time>
            </trkpt>
            <trkpt lon="101.404181" lat="14.222392">
                <ele>34.264160</ele>
                <time>2012-06-24T03:06:13Z</time>
            </trkpt>
            <trkpt lon="101.403626" lat="14.222807">
                <ele>33.302856</ele>
                <time>2012-06-24T03:06:28Z</time>
            </trkpt>
            <trkpt lon="101.402656" lat="14.223970">
                <ele>36.667481</ele>
                <time>2012-06-24T03:07:10Z</time>
            </trkpt>
            <trkpt lon="101.402324" lat="14.224412">
                <ele>36.186768</ele>
                <time>2012-06-24T03:07:26Z</time>
            </trkpt>
            <trkpt lon="101.401678" lat="14.224818">
                <ele>34.744873</ele>
                <time>2012-06-24T03:07:45Z</time>
            </trkpt>
            <trkpt lon="101.401176" lat="14.225056">
                <ele>31.860718</ele>
                <time>2012-06-24T03:07:58Z</time>
            </trkpt>
            <trkpt lon="101.400154" lat="14.225289">
                <ele>30.899536</ele>
                <time>2012-06-24T03:08:29Z</time>
            </trkpt>
            <trkpt lon="101.399376" lat="14.225214">
                <ele>33.302856</ele>
                <time>2012-06-24T03:08:51Z</time>
            </trkpt>
            <trkpt lon="101.398671" lat="14.225342">
                <ele>30.899536</ele>
                <time>2012-06-24T03:09:16Z</time>
            </trkpt>
            <trkpt lon="101.397359" lat="14.226189">
                <ele>30.418823</ele>
                <time>2012-06-24T03:10:17Z</time>
            </trkpt>
            <trkpt lon="101.396395" lat="14.224701">
                <ele>26.573608</ele>
                <time>2012-06-24T03:11:11Z</time>
            </trkpt>
            <trkpt lon="101.395442" lat="14.225160">
                <ele>26.092896</ele>
                <time>2012-06-24T03:11:38Z</time>
            </trkpt>
            <trkpt lon="101.394223" lat="14.225083">
                <ele>24.651001</ele>
                <time>2012-06-24T03:11:59Z</time>
            </trkpt>
            <trkpt lon="101.391757" lat="14.225374">
                <ele>26.092896</ele>
                <time>2012-06-24T03:12:41Z</time>
            </trkpt>
            <trkpt lon="101.389411" lat="14.225986">
                <ele>26.092896</ele>
                <time>2012-06-24T03:13:24Z</time>
            </trkpt>
            <trkpt lon="101.388304" lat="14.226415">
                <ele>25.131714</ele>
                <time>2012-06-24T03:13:44Z</time>
            </trkpt>
            <trkpt lon="101.386972" lat="14.226602">
                <ele>26.573608</ele>
                <time>2012-06-24T03:14:07Z</time>
            </trkpt>
            <trkpt lon="101.385726" lat="14.226611">
                <ele>25.131714</ele>
                <time>2012-06-24T03:14:29Z</time>
            </trkpt>
            <trkpt lon="101.383723" lat="14.226084">
                <ele>23.208984</ele>
                <time>2012-06-24T03:15:06Z</time>
            </trkpt>
            <trkpt lon="101.383480" lat="14.226206">
                <ele>23.208984</ele>
                <time>2012-06-24T03:15:13Z</time>
            </trkpt>
            <trkpt lon="101.382861" lat="14.227343">
                <ele>26.092896</ele>
                <time>2012-06-24T03:15:40Z</time>
            </trkpt>
            <trkpt lon="101.382394" lat="14.228354">
                <ele>27.534912</ele>
                <time>2012-06-24T03:16:03Z</time>
            </trkpt>
            <trkpt lon="101.381681" lat="14.230755">
                <ele>28.015503</ele>
                <time>2012-06-24T03:16:54Z</time>
            </trkpt>
            <trkpt lon="101.380485" lat="14.229608">
                <ele>27.054321</ele>
                <time>2012-06-24T03:17:36Z</time>
            </trkpt>
            <trkpt lon="101.379394" lat="14.229087">
                <ele>25.612305</ele>
                <time>2012-06-24T03:17:55Z</time>
            </trkpt>
            <trkpt lon="101.378951" lat="14.229002">
                <ele>27.054321</ele>
                <time>2012-06-24T03:18:03Z</time>
            </trkpt>
            <trkpt lon="101.377936" lat="14.229560">
                <ele>28.015503</ele>
                <time>2012-06-24T03:18:26Z</time>
            </trkpt>
            <trkpt lon="101.377575" lat="14.229510">
                <ele>28.496216</ele>
                <time>2012-06-24T03:18:33Z</time>
            </trkpt>
            <trkpt lon="101.375996" lat="14.228659">
                <ele>33.302856</ele>
                <time>2012-06-24T03:19:19Z</time>
            </trkpt>
            <trkpt lon="101.375002" lat="14.228284">
                <ele>38.109375</ele>
                <time>2012-06-24T03:19:59Z</time>
            </trkpt>
            <trkpt lon="101.374473" lat="14.228191">
                <ele>38.590088</ele>
                <time>2012-06-24T03:20:15Z</time>
            </trkpt>
            <trkpt lon="101.373023" lat="14.228523">
                <ele>41.954712</ele>
                <time>2012-06-24T03:21:08Z</time>
            </trkpt>
            <trkpt lon="101.372157" lat="14.228623">
                <ele>34.744873</ele>
                <time>2012-06-24T03:21:52Z</time>
            </trkpt>
            <trkpt lon="101.370699" lat="14.228442">
                <ele>33.783447</ele>
                <time>2012-06-24T03:22:25Z</time>
            </trkpt>
            <trkpt lon="101.370388" lat="14.228426">
                <ele>30.418823</ele>
                <time>2012-06-24T03:22:28Z</time>
            </trkpt>
            <trkpt lon="101.369040" lat="14.227816">
                <ele>30.418823</ele>
                <time>2012-06-24T03:22:55Z</time>
            </trkpt>
            <trkpt lon="101.368021" lat="14.227792">
                <ele>29.938110</ele>
                <time>2012-06-24T03:23:11Z</time>
            </trkpt>
            <trkpt lon="101.367742" lat="14.228005">
                <ele>30.418823</ele>
                <time>2012-06-24T03:23:17Z</time>
            </trkpt>
            <trkpt lon="101.367211" lat="14.228927">
                <ele>31.860718</ele>
                <time>2012-06-24T03:23:37Z</time>
            </trkpt>
            <trkpt lon="101.367051" lat="14.229289">
                <ele>31.860718</ele>
                <time>2012-06-24T03:23:44Z</time>
            </trkpt>
            <trkpt lon="101.367022" lat="14.229820">
                <ele>30.418823</ele>
                <time>2012-06-24T03:23:53Z</time>
            </trkpt>
            <trkpt lon="101.366771" lat="14.230133">
                <ele>29.457520</ele>
                <time>2012-06-24T03:24:00Z</time>
            </trkpt>
            <trkpt lon="101.365549" lat="14.230688">
                <ele>28.976929</ele>
                <time>2012-06-24T03:24:23Z</time>
            </trkpt>
            <trkpt lon="101.365381" lat="14.230658">
                <ele>29.938110</ele>
                <time>2012-06-24T03:24:28Z</time>
            </trkpt>
            <trkpt lon="101.365213" lat="14.230229">
                <ele>29.938110</ele>
                <time>2012-06-24T03:24:38Z</time>
            </trkpt>
            <trkpt lon="101.365007" lat="14.230133">
                <ele>30.418823</ele>
                <time>2012-06-24T03:24:47Z</time>
            </trkpt>
            <trkpt lon="101.365200" lat="14.230185">
                <ele>30.899536</ele>
                <time>2012-06-24T03:25:03Z</time>
            </trkpt>
            <trkpt lon="101.365399" lat="14.230676">
                <ele>32.341553</ele>
                <time>2012-06-24T03:25:19Z</time>
            </trkpt>
            <trkpt lon="101.363545" lat="14.231823">
                <ele>29.457520</ele>
                <time>2012-06-24T03:26:02Z</time>
            </trkpt>
            <trkpt lon="101.362654" lat="14.231967">
                <ele>28.015503</ele>
                <time>2012-06-24T03:26:17Z</time>
            </trkpt>
            <trkpt lon="101.361482" lat="14.233650">
                <ele>26.092896</ele>
                <time>2012-06-24T03:26:54Z</time>
            </trkpt>
            <trkpt lon="101.359490" lat="14.235584">
                <ele>26.573608</ele>
                <time>2012-06-24T03:27:46Z</time>
            </trkpt>
            <trkpt lon="101.359249" lat="14.235619">
                <ele>27.054321</ele>
                <time>2012-06-24T03:27:51Z</time>
            </trkpt>
            <trkpt lon="101.357532" lat="14.234433">
                <ele>27.054321</ele>
                <time>2012-06-24T03:28:29Z</time>
            </trkpt>
            <trkpt lon="101.356824" lat="14.234075">
                <ele>28.015503</ele>
                <time>2012-06-24T03:28:42Z</time>
            </trkpt>
            <trkpt lon="101.356362" lat="14.234088">
                <ele>27.534912</ele>
                <time>2012-06-24T03:28:50Z</time>
            </trkpt>
            <trkpt lon="101.355348" lat="14.234501">
                <ele>28.976929</ele>
                <time>2012-06-24T03:29:11Z</time>
            </trkpt>
            <trkpt lon="101.354621" lat="14.234519">
                <ele>34.264160</ele>
                <time>2012-06-24T03:29:44Z</time>
            </trkpt>
            <trkpt lon="101.353296" lat="14.234684">
                <ele>31.860718</ele>
                <time>2012-06-24T03:30:10Z</time>
            </trkpt>
            <trkpt lon="101.352200" lat="14.235077">
                <ele>33.783447</ele>
                <time>2012-06-24T03:30:32Z</time>
            </trkpt>
            <trkpt lon="101.350545" lat="14.235017">
                <ele>32.822266</ele>
                <time>2012-06-24T03:31:05Z</time>
            </trkpt>
            <trkpt lon="101.348859" lat="14.235698">
                <ele>31.380127</ele>
                <time>2012-06-24T03:31:49Z</time>
            </trkpt>
            <trkpt lon="101.348600" lat="14.235651">
                <ele>31.380127</ele>
                <time>2012-06-24T03:31:55Z</time>
            </trkpt>
            <trkpt lon="101.347890" lat="14.235139">
                <ele>28.976929</ele>
                <time>2012-06-24T03:32:18Z</time>
            </trkpt>
            <trkpt lon="101.347018" lat="14.235073">
                <ele>30.418823</ele>
                <time>2012-06-24T03:32:46Z</time>
            </trkpt>
            <trkpt lon="101.346495" lat="14.235004">
                <ele>29.457520</ele>
                <time>2012-06-24T03:33:02Z</time>
            </trkpt>
            <trkpt lon="101.345946" lat="14.234228">
                <ele>35.225464</ele>
                <time>2012-06-24T03:33:44Z</time>
            </trkpt>
            <trkpt lon="101.345574" lat="14.234156">
                <ele>38.109375</ele>
                <time>2012-06-24T03:33:55Z</time>
            </trkpt>
            <trkpt lon="101.345370" lat="14.234118">
                <ele>38.590088</ele>
                <time>2012-06-24T03:34:39Z</time>
            </trkpt>
            <trkpt lon="101.345132" lat="14.234451">
                <ele>41.954712</ele>
                <time>2012-06-24T03:35:40Z</time>
            </trkpt>
            <trkpt lon="101.345244" lat="14.234667">
                <ele>43.877319</ele>
                <time>2012-06-24T03:35:56Z</time>
            </trkpt>
            <trkpt lon="101.345063" lat="14.235327">
                <ele>46.761231</ele>
                <time>2012-06-24T03:36:29Z</time>
            </trkpt>
            <trkpt lon="101.344638" lat="14.235693">
                <ele>46.761231</ele>
                <time>2012-06-24T03:36:46Z</time>
            </trkpt>
            <trkpt lon="101.343964" lat="14.235773">
                <ele>45.319214</ele>
                <time>2012-06-24T03:37:03Z</time>
            </trkpt>
            <trkpt lon="101.342710" lat="14.233867">
                <ele>39.551269</ele>
                <time>2012-06-24T03:37:42Z</time>
            </trkpt>
            <trkpt lon="101.341703" lat="14.231568">
                <ele>40.512817</ele>
                <time>2012-06-24T03:38:26Z</time>
            </trkpt>
            <trkpt lon="101.341855" lat="14.230188">
                <ele>40.512817</ele>
                <time>2012-06-24T03:38:52Z</time>
            </trkpt>
            <trkpt lon="101.341422" lat="14.229092">
                <ele>38.590088</ele>
                <time>2012-06-24T03:39:11Z</time>
            </trkpt>
            <trkpt lon="101.341586" lat="14.228589">
                <ele>38.590088</ele>
                <time>2012-06-24T03:39:20Z</time>
            </trkpt>
            <trkpt lon="101.342981" lat="14.228448">
                <ele>35.706055</ele>
                <time>2012-06-24T03:39:43Z</time>
            </trkpt>
            <trkpt lon="101.343757" lat="14.227790">
                <ele>37.148071</ele>
                <time>2012-06-24T03:39:59Z</time>
            </trkpt>
            <trkpt lon="101.344043" lat="14.226433">
                <ele>34.744873</ele>
                <time>2012-06-24T03:40:20Z</time>
            </trkpt>
            <trkpt lon="101.344368" lat="14.225850">
                <ele>35.706055</ele>
                <time>2012-06-24T03:40:30Z</time>
            </trkpt>
            <trkpt lon="101.344525" lat="14.225044">
                <ele>36.186768</ele>
                <time>2012-06-24T03:40:45Z</time>
            </trkpt>
            <trkpt lon="101.344233" lat="14.223834">
                <ele>40.512817</ele>
                <time>2012-06-24T03:41:12Z</time>
            </trkpt>
            <trkpt lon="101.344228" lat="14.223750">
                <ele>40.512817</ele>
                <time>2012-06-24T03:41:14Z</time>
            </trkpt>
            <trkpt lon="101.344460" lat="14.223010">
                <ele>42.435425</ele>
                <time>2012-06-24T03:41:33Z</time>
            </trkpt>
            <trkpt lon="101.344823" lat="14.222395">
                <ele>45.319214</ele>
                <time>2012-06-24T03:41:51Z</time>
            </trkpt>
            <trkpt lon="101.345176" lat="14.222063">
                <ele>48.203369</ele>
                <time>2012-06-24T03:42:17Z</time>
            </trkpt>
            <trkpt lon="101.345174" lat="14.222069">
                <ele>51.567871</ele>
                <time>2012-06-24T03:42:53Z</time>
            </trkpt>
            <trkpt lon="101.345041" lat="14.222173">
                <ele>51.087158</ele>
                <time>2012-06-24T03:42:59Z</time>
            </trkpt>
            <trkpt lon="101.344679" lat="14.222567">
                <ele>48.683960</ele>
                <time>2012-06-24T03:43:09Z</time>
            </trkpt>
            <trkpt lon="101.344127" lat="14.223788">
                <ele>45.319214</ele>
                <time>2012-06-24T03:43:35Z</time>
            </trkpt>
            <trkpt lon="101.343838" lat="14.223793">
                <ele>47.722534</ele>
                <time>2012-06-24T03:44:04Z</time>
            </trkpt>
            <trkpt lon="101.342984" lat="14.223728">
                <ele>48.683960</ele>
                <time>2012-06-24T03:44:36Z</time>
            </trkpt>
            <trkpt lon="101.341522" lat="14.223261">
                <ele>42.435425</ele>
                <time>2012-06-24T03:46:00Z</time>
            </trkpt>
            <trkpt lon="101.339838" lat="14.223836">
                <ele>47.722534</ele>
                <time>2012-06-24T03:47:06Z</time>
            </trkpt>
            <trkpt lon="101.339030" lat="14.224216">
                <ele>41.954712</ele>
                <time>2012-06-24T03:47:36Z</time>
            </trkpt>
            <trkpt lon="101.338494" lat="14.224209">
                <ele>41.473999</ele>
                <time>2012-06-24T03:47:51Z</time>
            </trkpt>
            <trkpt lon="101.337908" lat="14.223143">
                <ele>47.241821</ele>
                <time>2012-06-24T03:48:46Z</time>
            </trkpt>
            <trkpt lon="101.337599" lat="14.222109">
                <ele>45.799927</ele>
                <time>2012-06-24T03:49:17Z</time>
            </trkpt>
            <trkpt lon="101.337179" lat="14.222404">
                <ele>50.606567</ele>
                <time>2012-06-24T03:49:48Z</time>
            </trkpt>
            <trkpt lon="101.337078" lat="14.222267">
                <ele>50.125977</ele>
                <time>2012-06-24T03:49:56Z</time>
            </trkpt>
            <trkpt lon="101.336850" lat="14.222297">
                <ele>50.125977</ele>
                <time>2012-06-24T03:50:11Z</time>
            </trkpt>
            <trkpt lon="101.336359" lat="14.221791">
                <ele>50.125977</ele>
                <time>2012-06-24T03:50:46Z</time>
            </trkpt>
            <trkpt lon="101.335873" lat="14.221303">
                <ele>47.241821</ele>
                <time>2012-06-24T03:51:17Z</time>
            </trkpt>
            <trkpt lon="101.335027" lat="14.219947">
                <ele>56.855103</ele>
                <time>2012-06-24T03:54:03Z</time>
            </trkpt>
            <trkpt lon="101.334696" lat="14.219796">
                <ele>51.567871</ele>
                <time>2012-06-24T03:54:53Z</time>
            </trkpt>
            <trkpt lon="101.334166" lat="14.219223">
                <ele>48.683960</ele>
                <time>2012-06-24T03:56:59Z</time>
            </trkpt>
            <trkpt lon="101.333726" lat="14.218858">
                <ele>43.396606</ele>
                <time>2012-06-24T03:58:09Z</time>
            </trkpt>
            <trkpt lon="101.332151" lat="14.217811">
                <ele>40.512817</ele>
                <time>2012-06-24T03:59:18Z</time>
            </trkpt>
            <trkpt lon="101.331647" lat="14.217440">
                <ele>35.225464</ele>
                <time>2012-06-24T03:59:36Z</time>
            </trkpt>
            <trkpt lon="101.331334" lat="14.217147">
                <ele>36.186768</ele>
                <time>2012-06-24T03:59:51Z</time>
            </trkpt>
            <trkpt lon="101.330860" lat="14.216261">
                <ele>36.186768</ele>
                <time>2012-06-24T04:00:26Z</time>
            </trkpt>
            <trkpt lon="101.330558" lat="14.215688">
                <ele>33.302856</ele>
                <time>2012-06-24T04:00:42Z</time>
            </trkpt>
            <trkpt lon="101.330054" lat="14.215315">
                <ele>33.302856</ele>
                <time>2012-06-24T04:00:59Z</time>
            </trkpt>
            <trkpt lon="101.329532" lat="14.215081">
                <ele>33.783447</ele>
                <time>2012-06-24T04:01:16Z</time>
            </trkpt>
            <trkpt lon="101.328472" lat="14.215284">
                <ele>33.302856</ele>
                <time>2012-06-24T04:01:42Z</time>
            </trkpt>
            <trkpt lon="101.328404" lat="14.215165">
                <ele>33.302856</ele>
                <time>2012-06-24T04:01:48Z</time>
            </trkpt>
            <trkpt lon="101.328737" lat="14.214246">
                <ele>31.380127</ele>
                <time>2012-06-24T04:02:11Z</time>
            </trkpt>
            <trkpt lon="101.329814" lat="14.213475">
                <ele>31.380127</ele>
                <time>2012-06-24T04:02:49Z</time>
            </trkpt>
            <trkpt lon="101.330305" lat="14.212893">
                <ele>30.418823</ele>
                <time>2012-06-24T04:03:04Z</time>
            </trkpt>
            <trkpt lon="101.330600" lat="14.212779">
                <ele>28.976929</ele>
                <time>2012-06-24T04:03:11Z</time>
            </trkpt>
            <trkpt lon="101.331297" lat="14.212954">
                <ele>26.573608</ele>
                <time>2012-06-24T04:03:26Z</time>
            </trkpt>
            <trkpt lon="101.331719" lat="14.212493">
                <ele>25.131714</ele>
                <time>2012-06-24T04:03:45Z</time>
            </trkpt>
            <trkpt lon="101.331783" lat="14.212431">
                <ele>24.170288</ele>
                <time>2012-06-24T04:03:48Z</time>
            </trkpt>
            <trkpt lon="101.332368" lat="14.212572">
                <ele>23.689575</ele>
                <time>2012-06-24T04:04:04Z</time>
            </trkpt>
            <trkpt lon="101.332869" lat="14.212879">
                <ele>23.689575</ele>
                <time>2012-06-24T04:04:18Z</time>
            </trkpt>
            <trkpt lon="101.333343" lat="14.213252">
                <ele>23.208984</ele>
                <time>2012-06-24T04:04:39Z</time>
            </trkpt>
            <trkpt lon="101.333732" lat="14.213536">
                <ele>22.247559</ele>
                <time>2012-06-24T04:05:03Z</time>
            </trkpt>
            <trkpt lon="101.333927" lat="14.213914">
                <ele>21.766968</ele>
                <time>2012-06-24T04:05:22Z</time>
            </trkpt>
            <trkpt lon="101.334553" lat="14.214559">
                <ele>24.651001</ele>
                <time>2012-06-24T04:06:01Z</time>
            </trkpt>
            <trkpt lon="101.335322" lat="14.214718">
                <ele>27.054321</ele>
                <time>2012-06-24T04:06:32Z</time>
            </trkpt>
            <trkpt lon="101.336331" lat="14.214385">
                <ele>26.092896</ele>
                <time>2012-06-24T04:07:08Z</time>
            </trkpt>
            <trkpt lon="101.337047" lat="14.214570">
                <ele>28.496216</ele>
                <time>2012-06-24T04:07:33Z</time>
            </trkpt>
            <trkpt lon="101.337508" lat="14.214925">
                <ele>32.341553</ele>
                <time>2012-06-24T04:08:06Z</time>
            </trkpt>
            <trkpt lon="101.338288" lat="14.215200">
                <ele>40.512817</ele>
                <time>2012-06-24T04:08:55Z</time>
            </trkpt>
            <trkpt lon="101.338521" lat="14.215288">
                <ele>37.628662</ele>
                <time>2012-06-24T04:09:09Z</time>
            </trkpt>
            <trkpt lon="101.338555" lat="14.215310">
                <ele>34.264160</ele>
                <time>2012-06-24T04:10:38Z</time>
            </trkpt>
            <trkpt lon="101.339075" lat="14.215039">
                <ele>34.744873</ele>
                <time>2012-06-24T04:11:02Z</time>
            </trkpt>
            <trkpt lon="101.340482" lat="14.214937">
                <ele>26.092896</ele>
                <time>2012-06-24T04:11:36Z</time>
            </trkpt>
            <trkpt lon="101.340800" lat="14.214734">
                <ele>26.573608</ele>
                <time>2012-06-24T04:11:45Z</time>
            </trkpt>
            <trkpt lon="101.341188" lat="14.214271">
                <ele>26.573608</ele>
                <time>2012-06-24T04:11:58Z</time>
            </trkpt>
            <trkpt lon="101.341826" lat="14.213371">
                <ele>25.612305</ele>
                <time>2012-06-24T04:12:26Z</time>
            </trkpt>
            <trkpt lon="101.341873" lat="14.213080">
                <ele>26.092896</ele>
                <time>2012-06-24T04:12:33Z</time>
            </trkpt>
            <trkpt lon="101.342327" lat="14.212704">
                <ele>25.612305</ele>
                <time>2012-06-24T04:12:45Z</time>
            </trkpt>
            <trkpt lon="101.342401" lat="14.212561">
                <ele>25.131714</ele>
                <time>2012-06-24T04:12:49Z</time>
            </trkpt>
            <trkpt lon="101.342729" lat="14.212468">
                <ele>25.131714</ele>
                <time>2012-06-24T04:12:57Z</time>
            </trkpt>
            <trkpt lon="101.342543" lat="14.211611">
                <ele>24.651001</ele>
                <time>2012-06-24T04:13:10Z</time>
            </trkpt>
            <trkpt lon="101.342665" lat="14.211286">
                <ele>25.131714</ele>
                <time>2012-06-24T04:13:19Z</time>
            </trkpt>
            <trkpt lon="101.344367" lat="14.212058">
                <ele>27.054321</ele>
                <time>2012-06-24T04:13:31Z</time>
            </trkpt>
            <trkpt lon="101.345238" lat="14.212073">
                <ele>23.208984</ele>
                <time>2012-06-24T04:13:52Z</time>
            </trkpt>
            <trkpt lon="101.345912" lat="14.212313">
                <ele>20.324951</ele>
                <time>2012-06-24T04:14:11Z</time>
            </trkpt>
            <trkpt lon="101.346656" lat="14.213440">
                <ele>28.976929</ele>
                <time>2012-06-24T04:15:00Z</time>
            </trkpt>
            <trkpt lon="101.347746" lat="14.214455">
                <ele>55.413086</ele>
                <time>2012-06-24T04:17:17Z</time>
            </trkpt>
            <trkpt lon="101.347902" lat="14.214588">
                <ele>57.335815</ele>
                <time>2012-06-24T04:17:36Z</time>
            </trkpt>
            <trkpt lon="101.348065" lat="14.214623">
                <ele>57.335815</ele>
                <time>2012-06-24T04:17:50Z</time>
            </trkpt>
            <trkpt lon="101.348487" lat="14.214194">
                <ele>57.816528</ele>
                <time>2012-06-24T04:18:08Z</time>
            </trkpt>
            <trkpt lon="101.348932" lat="14.213482">
                <ele>56.374512</ele>
                <time>2012-06-24T04:18:27Z</time>
            </trkpt>
            <trkpt lon="101.349095" lat="14.212099">
                <ele>53.490479</ele>
                <time>2012-06-24T04:18:57Z</time>
            </trkpt>
            <trkpt lon="101.349007" lat="14.211810">
                <ele>52.529175</ele>
                <time>2012-06-24T04:19:08Z</time>
            </trkpt>
            <trkpt lon="101.348693" lat="14.210919">
                <ele>47.722534</ele>
                <time>2012-06-24T04:19:26Z</time>
            </trkpt>
            <trkpt lon="101.348458" lat="14.209950">
                <ele>39.551269</ele>
                <time>2012-06-24T04:19:38Z</time>
            </trkpt>
            <trkpt lon="101.348356" lat="14.208170">
                <ele>24.651001</ele>
                <time>2012-06-24T04:19:54Z</time>
            </trkpt>
            <trkpt lon="101.347976" lat="14.206628">
                <ele>17.441162</ele>
                <time>2012-06-24T04:20:13Z</time>
            </trkpt>
            <trkpt lon="101.347292" lat="14.206022">
                <ele>15.518433</ele>
                <time>2012-06-24T04:20:33Z</time>
            </trkpt>
            <trkpt lon="101.344094" lat="14.204849">
                <ele>18.402344</ele>
                <time>2012-06-24T04:21:40Z</time>
            </trkpt>
            <trkpt lon="101.342660" lat="14.204562">
                <ele>24.651001</ele>
                <time>2012-06-24T04:26:06Z</time>
            </trkpt>
            <trkpt lon="101.342635" lat="14.204553">
                <ele>23.208984</ele>
                <time>2012-06-24T04:26:58Z</time>
            </trkpt>
            <trkpt lon="101.342634" lat="14.204574">
                <ele>21.286377</ele>
                <time>2012-06-24T04:27:22Z</time>
            </trkpt>
            <trkpt lon="101.342640" lat="14.204562">
                <ele>25.612305</ele>
                <time>2012-06-24T04:33:00Z</time>
            </trkpt>
            <trkpt lon="101.342771" lat="14.204434">
                <ele>24.651001</ele>
                <time>2012-06-24T04:34:53Z</time>
            </trkpt>
            <trkpt lon="101.342932" lat="14.203872">
                <ele>24.170288</ele>
                <time>2012-06-24T04:35:08Z</time>
            </trkpt>
            <trkpt lon="101.343374" lat="14.200825">
                <ele>18.883057</ele>
                <time>2012-06-24T04:36:03Z</time>
            </trkpt>
            <trkpt lon="101.343181" lat="14.196348">
                <ele>15.999023</ele>
                <time>2012-06-24T04:37:22Z</time>
            </trkpt>
            <trkpt lon="101.342915" lat="14.194832">
                <ele>15.999023</ele>
                <time>2012-06-24T04:37:54Z</time>
            </trkpt>
            <trkpt lon="101.343005" lat="14.194640">
                <ele>15.518433</ele>
                <time>2012-06-24T04:37:58Z</time>
            </trkpt>
            <trkpt lon="101.343785" lat="14.194185">
                <ele>13.595825</ele>
                <time>2012-06-24T04:38:12Z</time>
            </trkpt>
            <trkpt lon="101.345105" lat="14.193013">
                <ele>14.557007</ele>
                <time>2012-06-24T04:38:43Z</time>
            </trkpt>
            <trkpt lon="101.345514" lat="14.192736">
                <ele>14.076416</ele>
                <time>2012-06-24T04:38:53Z</time>
            </trkpt>
            <trkpt lon="101.348615" lat="14.187202">
                <ele>15.037720</ele>
                <time>2012-06-24T04:40:49Z</time>
            </trkpt>
            <trkpt lon="101.349147" lat="14.187381">
                <ele>15.037720</ele>
                <time>2012-06-24T04:41:01Z</time>
            </trkpt>
            <trkpt lon="101.349172" lat="14.187828">
                <ele>15.037720</ele>
                <time>2012-06-24T04:41:11Z</time>
            </trkpt>
            <trkpt lon="101.349863" lat="14.188519">
                <ele>14.557007</ele>
                <time>2012-06-24T04:41:33Z</time>
            </trkpt>
            <trkpt lon="101.350216" lat="14.188661">
                <ele>15.037720</ele>
                <time>2012-06-24T04:41:45Z</time>
            </trkpt>
            <trkpt lon="101.349768" lat="14.188516">
                <ele>15.037720</ele>
                <time>2012-06-24T04:42:11Z</time>
            </trkpt>
            <trkpt lon="101.349131" lat="14.187786">
                <ele>14.557007</ele>
                <time>2012-06-24T04:42:40Z</time>
            </trkpt>
            <trkpt lon="101.349070" lat="14.187319">
                <ele>13.115112</ele>
                <time>2012-06-24T04:42:52Z</time>
            </trkpt>
            <trkpt lon="101.348676" lat="14.187179">
                <ele>14.076416</ele>
                <time>2012-06-24T04:43:03Z</time>
            </trkpt>
            <trkpt lon="101.349763" lat="14.185200">
                <ele>15.037720</ele>
                <time>2012-06-24T04:43:51Z</time>
            </trkpt>
            <trkpt lon="101.351109" lat="14.183055">
                <ele>13.115112</ele>
                <time>2012-06-24T04:44:37Z</time>
            </trkpt>
            <trkpt lon="101.351209" lat="14.182269">
                <ele>13.595825</ele>
                <time>2012-06-24T04:44:52Z</time>
            </trkpt>
            <trkpt lon="101.350930" lat="14.181753">
                <ele>13.115112</ele>
                <time>2012-06-24T04:45:04Z</time>
            </trkpt>
            <trkpt lon="101.351793" lat="14.180566">
                <ele>14.557007</ele>
                <time>2012-06-24T04:45:41Z</time>
            </trkpt>
            <trkpt lon="101.352420" lat="14.180883">
                <ele>15.999023</ele>
                <time>2012-06-24T04:46:02Z</time>
            </trkpt>
            <trkpt lon="101.353363" lat="14.181605">
                <ele>14.076416</ele>
                <time>2012-06-24T04:46:29Z</time>
            </trkpt>
            <trkpt lon="101.353875" lat="14.182462">
                <ele>14.557007</ele>
                <time>2012-06-24T04:46:49Z</time>
            </trkpt>
            <trkpt lon="101.354917" lat="14.184039">
                <ele>10.231201</ele>
                <time>2012-06-24T04:47:26Z</time>
            </trkpt>
            <trkpt lon="101.355777" lat="14.185841">
                <ele>12.153809</ele>
                <time>2012-06-24T04:48:01Z</time>
            </trkpt>
            <trkpt lon="101.356352" lat="14.186973">
                <ele>11.192505</ele>
                <time>2012-06-24T04:48:23Z</time>
            </trkpt>
            <trkpt lon="101.357028" lat="14.187998">
                <ele>11.673218</ele>
                <time>2012-06-24T04:48:44Z</time>
            </trkpt>
            <trkpt lon="101.361129" lat="14.192123">
                <ele>12.634399</ele>
                <time>2012-06-24T04:50:17Z</time>
            </trkpt>
            <trkpt lon="101.361758" lat="14.193079">
                <ele>12.634399</ele>
                <time>2012-06-24T04:50:38Z</time>
            </trkpt>
            <trkpt lon="101.362109" lat="14.194061">
                <ele>12.153809</ele>
                <time>2012-06-24T04:50:56Z</time>
            </trkpt>
            <trkpt lon="101.362311" lat="14.194271">
                <ele>11.673218</ele>
                <time>2012-06-24T04:51:01Z</time>
            </trkpt>
            <trkpt lon="101.369576" lat="14.197109">
                <ele>16.479736</ele>
                <time>2012-06-24T04:53:13Z</time>
            </trkpt>
            <trkpt lon="101.371998" lat="14.197742">
                <ele>14.076416</ele>
                <time>2012-06-24T04:53:55Z</time>
            </trkpt>
            <trkpt lon="101.372456" lat="14.198413">
                <ele>14.557007</ele>
                <time>2012-06-24T04:54:09Z</time>
            </trkpt>
            <trkpt lon="101.372543" lat="14.198934">
                <ele>13.115112</ele>
                <time>2012-06-24T04:54:18Z</time>
            </trkpt>
            <trkpt lon="101.375371" lat="14.200948">
                <ele>14.076416</ele>
                <time>2012-06-24T04:55:15Z</time>
            </trkpt>
            <trkpt lon="101.383773" lat="14.206265">
                <ele>17.441162</ele>
                <time>2012-06-24T04:58:04Z</time>
            </trkpt>
            <trkpt lon="101.385718" lat="14.207351">
                <ele>18.883057</ele>
                <time>2012-06-24T04:58:47Z</time>
            </trkpt>
            <trkpt lon="101.387150" lat="14.207919">
                <ele>24.170288</ele>
                <time>2012-06-24T04:59:37Z</time>
            </trkpt>
            <trkpt lon="101.388089" lat="14.209037">
                <ele>26.092896</ele>
                <time>2012-06-24T05:00:15Z</time>
            </trkpt>
            <trkpt lon="101.388850" lat="14.210414">
                <ele>24.651001</ele>
                <time>2012-06-24T05:00:49Z</time>
            </trkpt>
            <trkpt lon="101.389578" lat="14.211157">
                <ele>27.534912</ele>
                <time>2012-06-24T05:01:08Z</time>
            </trkpt>
            <trkpt lon="101.391458" lat="14.213432">
                <ele>28.015503</ele>
                <time>2012-06-24T05:02:13Z</time>
            </trkpt>
            <trkpt lon="101.391479" lat="14.213899">
                <ele>26.573608</ele>
                <time>2012-06-24T05:02:20Z</time>
            </trkpt>
            <trkpt lon="101.390810" lat="14.215244">
                <ele>20.805664</ele>
                <time>2012-06-24T05:02:37Z</time>
            </trkpt>
            <trkpt lon="101.390778" lat="14.215627">
                <ele>21.286377</ele>
                <time>2012-06-24T05:02:42Z</time>
            </trkpt>
            <trkpt lon="101.391638" lat="14.217790">
                <ele>23.689575</ele>
                <time>2012-06-24T05:03:31Z</time>
            </trkpt>
            <trkpt lon="101.393022" lat="14.217948">
                <ele>24.170288</ele>
                <time>2012-06-24T05:03:59Z</time>
            </trkpt>
            <trkpt lon="101.393702" lat="14.218367">
                <ele>25.612305</ele>
                <time>2012-06-24T05:04:16Z</time>
            </trkpt>
            <trkpt lon="101.393976" lat="14.219069">
                <ele>23.689575</ele>
                <time>2012-06-24T05:04:32Z</time>
            </trkpt>
            <trkpt lon="101.394025" lat="14.219994">
                <ele>19.844360</ele>
                <time>2012-06-24T05:04:50Z</time>
            </trkpt>
            <trkpt lon="101.394638" lat="14.220038">
                <ele>20.324951</ele>
                <time>2012-06-24T05:05:05Z</time>
            </trkpt>
            <trkpt lon="101.395194" lat="14.219512">
                <ele>20.324951</ele>
                <time>2012-06-24T05:05:20Z</time>
            </trkpt>
            <trkpt lon="101.396663" lat="14.219131">
                <ele>28.015503</ele>
                <time>2012-06-24T05:05:58Z</time>
            </trkpt>
            <trkpt lon="101.397267" lat="14.218974">
                <ele>29.938110</ele>
                <time>2012-06-24T05:06:16Z</time>
            </trkpt>
            <trkpt lon="101.397475" lat="14.219065">
                <ele>31.860718</ele>
                <time>2012-06-24T05:06:27Z</time>
            </trkpt>
            <trkpt lon="101.398264" lat="14.219967">
                <ele>35.225464</ele>
                <time>2012-06-24T05:07:14Z</time>
            </trkpt>
            <trkpt lon="101.398415" lat="14.220115">
                <ele>35.225464</ele>
                <time>2012-06-24T05:07:20Z</time>
            </trkpt>
            <trkpt lon="101.399572" lat="14.220131">
                <ele>32.341553</ele>
                <time>2012-06-24T05:07:43Z</time>
            </trkpt>
            <trkpt lon="101.401959" lat="14.220945">
                <ele>27.054321</ele>
                <time>2012-06-24T05:08:27Z</time>
            </trkpt>
            <trkpt lon="101.402545" lat="14.220913">
                <ele>28.015503</ele>
                <time>2012-06-24T05:08:38Z</time>
            </trkpt>
            <trkpt lon="101.404272" lat="14.221810">
                <ele>33.783447</ele>
                <time>2012-06-24T05:09:22Z</time>
            </trkpt>
            <trkpt lon="101.404829" lat="14.222042">
                <ele>33.302856</ele>
                <time>2012-06-24T05:09:40Z</time>
            </trkpt>
            <trkpt lon="101.405641" lat="14.222036">
                <ele>38.590088</ele>
                <time>2012-06-24T05:10:04Z</time>
            </trkpt>
            <trkpt lon="101.405666" lat="14.218578">
                <ele>37.628662</ele>
                <time>2012-06-24T05:11:07Z</time>
            </trkpt>
            <trkpt lon="101.405945" lat="14.218155">
                <ele>37.628662</ele>
                <time>2012-06-24T05:11:20Z</time>
            </trkpt>
            <trkpt lon="101.405951" lat="14.217856">
                <ele>36.667481</ele>
                <time>2012-06-24T05:11:26Z</time>
            </trkpt>
            <trkpt lon="101.406264" lat="14.217537">
                <ele>36.667481</ele>
                <time>2012-06-24T05:11:35Z</time>
            </trkpt>
            <trkpt lon="101.407364" lat="14.217086">
                <ele>38.109375</ele>
                <time>2012-06-24T05:12:05Z</time>
            </trkpt>
            <trkpt lon="101.407122" lat="14.216861">
                <ele>37.148071</ele>
                <time>2012-06-24T05:12:15Z</time>
            </trkpt>
            <trkpt lon="101.406386" lat="14.216781">
                <ele>40.993408</ele>
                <time>2012-06-24T05:13:03Z</time>
            </trkpt>
            <trkpt lon="101.406375" lat="14.216792">
                <ele>34.744873</ele>
                <time>2012-06-24T05:15:54Z</time>
            </trkpt>
        </trkseg>
    </trk>
</gpx>